WetterOnline ( http://www.wetteronline.de )

Wetter aktuell Neuruppin

Aktuelles Wetter: Neuruppin (45m)

6-stündlich | Neueste Meldungen
Ortszeit Temperatur Wetter
Mo, 18.06. 20:00 21.8° C leicht bewölkt
Mo, 18.06. 14:00 21.5° C bedeckt
Mo, 18.06. 8:00 16.2° C wolkig
Mo, 18.06. 2:00 15.5° C bedeckt
So, 17.06. 20:00 22.3° C wolkenlos
So, 17.06. 14:00 23.2° C leicht bewölkt
So, 17.06. 8:00 18.4° C leicht bewölkt
So, 17.06. 2:00 16.8° C leicht bewölkt
Ortszeit Temperatur Wetter
Di, 19.06. 1:00 19.0° C bedeckt
Di, 19.06. 0:40 19.1° C bedeckt
Di, 19.06. 0:30 19.3° C bedeckt
Di, 19.06. 0:20 19.3° C bedeckt
Di, 19.06. 0:10 19.3° C bedeckt
Di, 19.06. 0:00 19.4° C bedeckt
Mo, 18.06. 23:50 19.4° C bedeckt
Mo, 18.06. 23:30 18.9° C bewölkt
Mo, 18.06. 23:00 18.6° C bedeckt
Mo, 18.06. 22:30 18.9° C bedeckt
Mo, 18.06. 22:00 19.6° C bedeckt
Ortszeit Relative Feuchte Sichtweite
Mo, 18.06. 20:00 55% 10 km
Mo, 18.06. 14:00 47% 10 km
Mo, 18.06. 8:00 77% 10 km
Mo, 18.06. 2:00 74% 11 km
So, 17.06. 20:00 39% 10 km
So, 17.06. 14:00 48% 10 km
So, 17.06. 8:00 71% 10 km
So, 17.06. 2:00 87% 10 km
Ortszeit Relative Feuchte Sichtweite
Di, 19.06. 1:00 69% 10 km
Di, 19.06. 0:40 67% -
Di, 19.06. 0:30 65% 10 km
Di, 19.06. 0:20 65% -
Di, 19.06. 0:10 66% -
Di, 19.06. 0:00 66% 10 km
Mo, 18.06. 23:50 66% -
Mo, 18.06. 23:30 72% 10 km
Mo, 18.06. 23:00 71% 10 km
Mo, 18.06. 22:30 69% 10 km
Mo, 18.06. 22:00 64% 10 km
Ortszeit Niederschlagsmenge Niederschlagsart
Mo, 18.06. 20:00 0.1 l/m2 in 12 Std. -
Mo, 18.06. 14:00 0.1 l/m2 in 6 Std. -
Mo, 18.06. 8:00 0.0 l/m2 in 12 Std. -
Mo, 18.06. 2:00 0.0 l/m2 in 6 Std. -
So, 17.06. 20:00 0.0 l/m2 in 12 Std. -
So, 17.06. 14:00 0.0 l/m2 in 6 Std. -
So, 17.06. 8:00 0.0 l/m2 in 12 Std. -
So, 17.06. 2:00 0.0 l/m2 in 6 Std. -
Ortszeit Niederschlagsmenge Niederschlagsart
Di, 19.06. 1:00 0.0 l/m2 in 1 Std. -
Di, 19.06. 0:40 keine Meldung -
Di, 19.06. 0:30 0.0 l/m2 in 1 Std. -
Di, 19.06. 0:20 keine Meldung -
Di, 19.06. 0:10 keine Meldung -
Di, 19.06. 0:00 0.0 l/m2 in 1 Std. -
Mo, 18.06. 23:50 keine Meldung -
Mo, 18.06. 23:30 0.0 l/m2 in 1 Std. -
Mo, 18.06. 23:00 0.0 l/m2 in 1 Std. -
Mo, 18.06. 22:30 0.0 l/m2 in 1 Std. -
Mo, 18.06. 22:00 0.0 l/m2 in 1 Std. -
Ortszeit Stärke Spitze Richtung
km/h Bft. km/h Grad Sektor
Mo, 18.06. 20:00 11 2 29 250° W
Mo, 18.06. 14:00 7 2 25 230° SW
Mo, 18.06. 8:00 4 1 14 260° W
Mo, 18.06. 2:00 0 0 22 - -
So, 17.06. 20:00 11 2 36 300° NW
So, 17.06. 14:00 14 3 40 240° SW
So, 17.06. 8:00 7 2 18 270° W
So, 17.06. 2:00 4 1 11 150° SO
Ortszeit Stärke Spitze Richtung
km/h Bft. km/h Grad Sektor
Di, 19.06. 1:00 6 1 15 250° W
Di, 19.06. 0:40 7 2 - 240° SW
Di, 19.06. 0:30 6 1 11 230° SW
Di, 19.06. 0:20 6 1 - 230° SW
Di, 19.06. 0:10 4 1 - 230° SW
Di, 19.06. 0:00 7 2 14 220° SW
Mo, 18.06. 23:50 7 2 - 220° SW
Mo, 18.06. 23:30 6 1 15 200° S
Mo, 18.06. 23:00 6 1 7 190° S
Mo, 18.06. 22:30 4 1 7 190° S
Mo, 18.06. 22:00 4 1 11 220° SW
Ortszeit Untergrenze Bedeckung Gattung
total tief tief mittel hoch
Mo, 18.06. 20:00 1500 m 2/8 1/8 - - -
Mo, 18.06. 14:00 1800 m 8/8 8/8 - - -
Mo, 18.06. 8:00 2700 m 7/8 5/8 - - -
Mo, 18.06. 2:00 3900 m 8/8 8/8 - - -
So, 17.06. 20:00 - 0/8 0/8 - - -
So, 17.06. 14:00 1470 m 3/8 3/8 - - -
So, 17.06. 8:00 3600 m 3/8 3/8 - - -
So, 17.06. 2:00 3000 m 2/8 2/8 - - -
Ortszeit Bedeckungsgrad in Achtel und Wolkenuntergrenze
Di, 19.06. 1:00 2(1110m) 6(2100m) 8(2400m)
Di, 19.06. 0:40 3(1500m) 7(2100m) 8(2400m)
Di, 19.06. 0:30 7(1500m) 7(1800m) 8(2400m)
Di, 19.06. 0:20 7(1500m) 7(1800m) 8(2400m)
Di, 19.06. 0:10 5(1470m) 8(1500m)
Di, 19.06. 0:00 6(1380m) 8(1800m)
Mo, 18.06. 23:50 6(1380m) 8(1800m)
Mo, 18.06. 23:30 7(1500m) 8(1800m)
Mo, 18.06. 23:00 5(1500m) 8(2400m)
Mo, 18.06. 22:30 2(1440m) 8(2400m)
Mo, 18.06. 22:00 1(1500m) 8(2400m) 8(2400m)
Ortszeit Luftdruck NN (hPa) Tendenz (hPa in 3 Std.)
Mo, 18.06. 20:00 1018 - 0,4
Mo, 18.06. 14:00 1020 - 0,1
Mo, 18.06. 8:00 1019 + 0,5
Mo, 18.06. 2:00 1018 + 1,1
So, 17.06. 20:00 1016 + 1,0
So, 17.06. 14:00 1015 - 0,1
So, 17.06. 8:00 1014 + 0,8
So, 17.06. 2:00 1013 - 0,3
Ortszeit Luftdruck NN (hPa) Tendenz (hPa in 3 Std.)
Di, 19.06. 1:00 1019 + 0,1
Di, 19.06. 0:40 1019 keine Meldung
Di, 19.06. 0:30 1019 + 0,4
Di, 19.06. 0:20 1019 keine Meldung
Di, 19.06. 0:10 1019 keine Meldung
Di, 19.06. 0:00 1019 + 0,6
Mo, 18.06. 23:50 1019 keine Meldung
Mo, 18.06. 23:30 1019 + 0,6
Mo, 18.06. 23:00 1019 + 0,6
Mo, 18.06. 22:30 1019 + 0,4
Mo, 18.06. 22:00 1019 + 0,3
Ortszeit Schneehöhe (cm)
Mo, 18.06. 20:00 -
Mo, 18.06. 14:00 -
Mo, 18.06. 8:00 -
Mo, 18.06. 2:00 -
So, 17.06. 20:00 -
So, 17.06. 14:00 -
So, 17.06. 8:00 -
So, 17.06. 2:00 -
Ortszeit Schneehöhe (cm)
Di, 19.06. 1:00 -
Di, 19.06. 0:40 -
Di, 19.06. 0:30 -
Di, 19.06. 0:20 -
Di, 19.06. 0:10 -
Di, 19.06. 0:00 -
Mo, 18.06. 23:50 -
Mo, 18.06. 23:30 -
Mo, 18.06. 23:00 -
Mo, 18.06. 22:30 -
Mo, 18.06. 22:00 -
Link zu dieser Seite / Seite empfehlen

Das Wetter in ...